sensor_id;sensor_type;location;lat;lon;timestamp;pressure;altitude;pressure_sealevel;temperature
80537;BMP280;69867;47.074;15.404;2023-12-04T00:01:14;98193.13;;;-4.73
80537;BMP280;69867;47.074;15.404;2023-12-04T00:03:39;98188.84;;;-4.74
80537;BMP280;69867;47.074;15.404;2023-12-04T00:06:05;98193.00;;;-4.76
80537;BMP280;69867;47.074;15.404;2023-12-04T00:08:30;98187.19;;;-4.74
80537;BMP280;69867;47.074;15.404;2023-12-04T00:10:55;98191.31;;;-4.76
80537;BMP280;69867;47.074;15.404;2023-12-04T00:13:20;98188.66;;;-4.79
80537;BMP280;69867;47.074;15.404;2023-12-04T00:15:46;98186.03;;;-4.80
80537;BMP280;69867;47.074;15.404;2023-12-04T00:18:12;98185.09;;;-4.82
80537;BMP280;69867;47.074;15.404;2023-12-04T00:20:37;98183.38;;;-4.84
80537;BMP280;69867;47.074;15.404;2023-12-04T00:23:02;98189.16;;;-4.86
80537;BMP280;69867;47.074;15.404;2023-12-04T00:25:27;98189.09;;;-4.88
80537;BMP280;69867;47.074;15.404;2023-12-04T00:27:52;98188.22;;;-4.88
80537;BMP280;69867;47.074;15.404;2023-12-04T00:30:18;98184.81;;;-4.89
80537;BMP280;69867;47.074;15.404;2023-12-04T00:32:43;98179.69;;;-4.90
80537;BMP280;69867;47.074;15.404;2023-12-04T00:35:08;98188.06;;;-4.91
80537;BMP280;69867;47.074;15.404;2023-12-04T00:37:33;98189.75;;;-4.92
80537;BMP280;69867;47.074;15.404;2023-12-04T00:39:59;98198.16;;;-4.93
80537;BMP280;69867;47.074;15.404;2023-12-04T00:42:24;98183.66;;;-4.95
80537;BMP280;69867;47.074;15.404;2023-12-04T00:44:49;98190.41;;;-4.96
80537;BMP280;69867;47.074;15.404;2023-12-04T00:47:14;98194.75;;;-4.93
80537;BMP280;69867;47.074;15.404;2023-12-04T00:49:40;98190.41;;;-4.96
80537;BMP280;69867;47.074;15.404;2023-12-04T00:52:05;98190.84;;;-5.04
80537;BMP280;69867;47.074;15.404;2023-12-04T00:54:30;98189.81;;;-5.08
80537;BMP280;69867;47.074;15.404;2023-12-04T00:56:55;98189.75;;;-5.09
80537;BMP280;69867;47.074;15.404;2023-12-04T00:59:21;98183.81;;;-5.10
80537;BMP280;69867;47.074;15.404;2023-12-04T01:01:46;98183.69;;;-5.13
80537;BMP280;69867;47.074;15.404;2023-12-04T01:04:11;98189.47;;;-5.16
80537;BMP280;69867;47.074;15.404;2023-12-04T01:06:36;98186.84;;;-5.17
80537;BMP280;69867;47.074;15.404;2023-12-04T01:09:02;98181.88;;;-5.16
80537;BMP280;69867;47.074;15.404;2023-12-04T01:11:27;98174.19;;;-5.17
80537;BMP280;69867;47.074;15.404;2023-12-04T01:13:52;98181.06;;;-5.14
80537;BMP280;69867;47.074;15.404;2023-12-04T01:16:17;98174.63;;;-5.08
80537;BMP280;69867;47.074;15.404;2023-12-04T01:18:43;98165.50;;;-5.04
80537;BMP280;69867;47.074;15.404;2023-12-04T01:21:08;98160.22;;;-5.09
80537;BMP280;69867;47.074;15.404;2023-12-04T01:23:34;98149.16;;;-5.11
80537;BMP280;69867;47.074;15.404;2023-12-04T01:25:59;98154.94;;;-5.13
80537;BMP280;69867;47.074;15.404;2023-12-04T01:28:24;98157.41;;;-5.15
80537;BMP280;69867;47.074;15.404;2023-12-04T01:30:50;98156.47;;;-5.17
80537;BMP280;69867;47.074;15.404;2023-12-04T01:33:15;98158.25;;;-5.14
80537;BMP280;69867;47.074;15.404;2023-12-04T01:35:40;98166.66;;;-5.16
80537;BMP280;69867;47.074;15.404;2023-12-04T01:38:06;98153.41;;;-5.10
80537;BMP280;69867;47.074;15.404;2023-12-04T01:40:31;98162.97;;;-5.04
80537;BMP280;69867;47.074;15.404;2023-12-04T01:42:56;98161.16;;;-5.07
80537;BMP280;69867;47.074;15.404;2023-12-04T01:45:22;98153.34;;;-5.11
80537;BMP280;69867;47.074;15.404;2023-12-04T01:47:47;98156.53;;;-5.16
80537;BMP280;69867;47.074;15.404;2023-12-04T01:50:12;98152.97;;;-5.19
80537;BMP280;69867;47.074;15.404;2023-12-04T01:52:39;98148.72;;;-5.20
80537;BMP280;69867;47.074;15.404;2023-12-04T01:55:05;98155.41;;;-5.21
80537;BMP280;69867;47.074;15.404;2023-12-04T01:57:32;98153.94;;;-5.17
80537;BMP280;69867;47.074;15.404;2023-12-04T01:59:57;98158.06;;;-5.19
80537;BMP280;69867;47.074;15.404;2023-12-04T02:02:23;98157.88;;;-5.22
80537;BMP280;69867;47.074;15.404;2023-12-04T02:04:48;98155.19;;;-5.25
80537;BMP280;69867;47.074;15.404;2023-12-04T02:07:13;98152.38;;;-5.31
80537;BMP280;69867;47.074;15.404;2023-12-04T02:09:39;98149.69;;;-5.34
80537;BMP280;69867;47.074;15.404;2023-12-04T02:12:05;98144.50;;;-5.37
80537;BMP280;69867;47.074;15.404;2023-12-04T02:14:30;98145.22;;;-5.40
80537;BMP280;69867;47.074;15.404;2023-12-04T02:16:55;98152.72;;;-5.41
80537;BMP280;69867;47.074;15.404;2023-12-04T02:19:21;98144.19;;;-5.43
80537;BMP280;69867;47.074;15.404;2023-12-04T02:21:47;98137.41;;;-5.44
80537;BMP280;69867;47.074;15.404;2023-12-04T02:24:12;98142.47;;;-5.44
80537;BMP280;69867;47.074;15.404;2023-12-04T02:26:39;98137.41;;;-5.44
80537;BMP280;69867;47.074;15.404;2023-12-04T02:29:14;98130.59;;;-5.45
80537;BMP280;69867;47.074;15.404;2023-12-04T02:31:41;98134.78;;;-5.46
80537;BMP280;69867;47.074;15.404;2023-12-04T02:34:07;98142.31;;;-5.48
80537;BMP280;69867;47.074;15.404;2023-12-04T02:36:35;98132.03;;;-5.51
80537;BMP280;69867;47.074;15.404;2023-12-04T02:39:01;98134.44;;;-5.54
80537;BMP280;69867;47.074;15.404;2023-12-04T02:41:27;98142.03;;;-5.54
80537;BMP280;69867;47.074;15.404;2023-12-04T02:43:52;98143.69;;;-5.54
80537;BMP280;69867;47.074;15.404;2023-12-04T02:46:17;98133.34;;;-5.59
80537;BMP280;69867;47.074;15.404;2023-12-04T02:48:43;98138.47;;;-5.57
80537;BMP280;69867;47.074;15.404;2023-12-04T02:51:08;98133.19;;;-5.62
80537;BMP280;69867;47.074;15.404;2023-12-04T02:53:34;98136.50;;;-5.63
80537;BMP280;69867;47.074;15.404;2023-12-04T02:55:59;98131.38;;;-5.64
80537;BMP280;69867;47.074;15.404;2023-12-04T02:58:24;98136.50;;;-5.63
80537;BMP280;69867;47.074;15.404;2023-12-04T03:00:49;98129.72;;;-5.64
80537;BMP280;69867;47.074;15.404;2023-12-04T03:03:15;98127.09;;;-5.65
80537;BMP280;69867;47.074;15.404;2023-12-04T03:05:40;98128.78;;;-5.66
80537;BMP280;69867;47.074;15.404;2023-12-04T03:08:05;98120.31;;;-5.66
80537;BMP280;69867;47.074;15.404;2023-12-04T03:10:30;98124.50;;;-5.67
80537;BMP280;69867;47.074;15.404;2023-12-04T03:12:56;98126.38;;;-5.63
80537;BMP280;69867;47.074;15.404;2023-12-04T03:15:21;98115.31;;;-5.65
80537;BMP280;69867;47.074;15.404;2023-12-04T03:17:46;98126.25;;;-5.66
80537;BMP280;69867;47.074;15.404;2023-12-04T03:20:12;98129.72;;;-5.64
80537;BMP280;69867;47.074;15.404;2023-12-04T03:22:37;98119.38;;;-5.68
80537;BMP280;69867;47.074;15.404;2023-12-04T03:25:02;98118.56;;;-5.67
80537;BMP280;69867;47.074;15.404;2023-12-04T03:27:28;98119.28;;;-5.70
80537;BMP280;69867;47.074;15.404;2023-12-04T03:29:53;98116.75;;;-5.70
80537;BMP280;69867;47.074;15.404;2023-12-04T03:32:18;98117.56;;;-5.71
80537;BMP280;69867;47.074;15.404;2023-12-04T03:34:43;98125.78;;;-5.75
80537;BMP280;69867;47.074;15.404;2023-12-04T03:37:08;98126.59;;;-5.76
80537;BMP280;69867;47.074;15.404;2023-12-04T03:39:34;98117.13;;;-5.80
80537;BMP280;69867;47.074;15.404;2023-12-04T03:41:59;98118.84;;;-5.79
80537;BMP280;69867;47.074;15.404;2023-12-04T03:44:25;98122.97;;;-5.81
80537;BMP280;69867;47.074;15.404;2023-12-04T03:46:50;98120.38;;;-5.83
80537;BMP280;69867;47.074;15.404;2023-12-04T03:49:15;98107.13;;;-5.77
80537;BMP280;69867;47.074;15.404;2023-12-04T03:51:41;98107.84;;;-5.80
80537;BMP280;69867;47.074;15.404;2023-12-04T03:54:06;98100.97;;;-5.82
80537;BMP280;69867;47.074;15.404;2023-12-04T03:56:31;98099.31;;;-5.82
80537;BMP280;69867;47.074;15.404;2023-12-04T03:58:56;98100.03;;;-5.84
80537;BMP280;69867;47.074;15.404;2023-12-04T04:01:21;98099.16;;;-5.85
80537;BMP280;69867;47.074;15.404;2023-12-04T04:03:47;98094.97;;;-5.84
80537;BMP280;69867;47.074;15.404;2023-12-04T04:06:12;98094.03;;;-5.86
80537;BMP280;69867;47.074;15.404;2023-12-04T04:08:37;98096.56;;;-5.86
80537;BMP280;69867;47.074;15.404;2023-12-04T04:11:03;98089.19;;;-5.82
80537;BMP280;69867;47.074;15.404;2023-12-04T04:13:28;98103.50;;;-5.82
80537;BMP280;69867;47.074;15.404;2023-12-04T04:15:53;98092.31;;;-5.87
80537;BMP280;69867;47.074;15.404;2023-12-04T04:18:19;98096.78;;;-5.82
80537;BMP280;69867;47.074;15.404;2023-12-04T04:20:44;98095.84;;;-5.84
80537;BMP280;69867;47.074;15.404;2023-12-04T04:23:09;98095.78;;;-5.85
80537;BMP280;69867;47.074;15.404;2023-12-04T04:25:34;98099.09;;;-5.86
80537;BMP280;69867;47.074;15.404;2023-12-04T04:28:00;98091.41;;;-5.89
80537;BMP280;69867;47.074;15.404;2023-12-04T04:30:25;98092.84;;;-5.94
80537;BMP280;69867;47.074;15.404;2023-12-04T04:32:50;98091.88;;;-5.96
80537;BMP280;69867;47.074;15.404;2023-12-04T04:35:15;98096.00;;;-5.98
80537;BMP280;69867;47.074;15.404;2023-12-04T04:37:41;98102.81;;;-5.97
80537;BMP280;69867;47.074;15.404;2023-12-04T04:40:07;98100.28;;;-5.97
80537;BMP280;69867;47.074;15.404;2023-12-04T04:42:32;98104.63;;;-5.95
80537;BMP280;69867;47.074;15.404;2023-12-04T04:44:57;98102.94;;;-5.94
80537;BMP280;69867;47.074;15.404;2023-12-04T04:47:22;98106.28;;;-5.95
80537;BMP280;69867;47.074;15.404;2023-12-04T04:49:48;98098.59;;;-5.97
80537;BMP280;69867;47.074;15.404;2023-12-04T04:52:13;98099.34;;;-5.99
80537;BMP280;69867;47.074;15.404;2023-12-04T04:54:38;98096.72;;;-6.01
80537;BMP280;69867;47.074;15.404;2023-12-04T04:57:04;98102.81;;;-5.97
80537;BMP280;69867;47.074;15.404;2023-12-04T04:59:29;98103.59;;;-5.98
80537;BMP280;69867;47.074;15.404;2023-12-04T05:01:54;98101.78;;;-6.01
80537;BMP280;69867;47.074;15.404;2023-12-04T05:04:20;98096.50;;;-6.05
80537;BMP280;69867;47.074;15.404;2023-12-04T05:06:45;98105.66;;;-6.07
80537;BMP280;69867;47.074;15.404;2023-12-04T05:09:10;98103.00;;;-6.10
80537;BMP280;69867;47.074;15.404;2023-12-04T05:11:36;98097.78;;;-6.14
80537;BMP280;69867;47.074;15.404;2023-12-04T05:14:01;98099.38;;;-6.16
80537;BMP280;69867;47.074;15.404;2023-12-04T05:16:26;98106.09;;;-6.16
80537;BMP280;69867;47.074;15.404;2023-12-04T05:18:51;98109.41;;;-6.17
80537;BMP280;69867;47.074;15.404;2023-12-04T05:21:17;98105.16;;;-6.18
80537;BMP280;69867;47.074;15.404;2023-12-04T05:23:42;98111.84;;;-6.19
80537;BMP280;69867;47.074;15.404;2023-12-04T05:26:07;98105.94;;;-6.19
80537;BMP280;69867;47.074;15.404;2023-12-04T05:28:33;98103.47;;;-6.18
80537;BMP280;69867;47.074;15.404;2023-12-04T05:30:58;98109.34;;;-6.19
80537;BMP280;69867;47.074;15.404;2023-12-04T05:33:24;98100.94;;;-6.18
80537;BMP280;69867;47.074;15.404;2023-12-04T05:35:49;98105.16;;;-6.18
80537;BMP280;69867;47.074;15.404;2023-12-04T05:38:15;98104.28;;;-6.19
80537;BMP280;69867;47.074;15.404;2023-12-04T05:40:40;98099.22;;;-6.19
80537;BMP280;69867;47.074;15.404;2023-12-04T05:43:05;98095.09;;;-6.17
80537;BMP280;69867;47.074;15.404;2023-12-04T05:45:31;98103.31;;;-6.21
80537;BMP280;69867;47.074;15.404;2023-12-04T05:47:56;98100.00;;;-6.20
80537;BMP280;69867;47.074;15.404;2023-12-04T05:50:21;98094.78;;;-6.23
80537;BMP280;69867;47.074;15.404;2023-12-04T05:52:47;98099.84;;;-6.23
80537;BMP280;69867;47.074;15.404;2023-12-04T05:55:12;98092.97;;;-6.25
80537;BMP280;69867;47.074;15.404;2023-12-04T05:57:40;98088.63;;;-6.28
80537;BMP280;69867;47.074;15.404;2023-12-04T06:00:06;98091.31;;;-6.25
80537;BMP280;69867;47.074;15.404;2023-12-04T06:02:32;98097.16;;;-6.26
80537;BMP280;69867;47.074;15.404;2023-12-04T06:04:57;98092.91;;;-6.27
80537;BMP280;69867;47.074;15.404;2023-12-04T06:07:22;98096.22;;;-6.28
80537;BMP280;69867;47.074;15.404;2023-12-04T06:09:47;98091.97;;;-6.29
80537;BMP280;69867;47.074;15.404;2023-12-04T06:12:13;98091.09;;;-6.29
80537;BMP280;69867;47.074;15.404;2023-12-04T06:14:38;98093.69;;;-6.28
80537;BMP280;69867;47.074;15.404;2023-12-04T06:17:03;98094.63;;;-6.26
80537;BMP280;69867;47.074;15.404;2023-12-04T06:19:29;98092.91;;;-6.27
80537;BMP280;69867;47.074;15.404;2023-12-04T06:21:54;98093.69;;;-6.28
80537;BMP280;69867;47.074;15.404;2023-12-04T06:24:20;98092.84;;;-6.28
80537;BMP280;69867;47.074;15.404;2023-12-04T06:26:49;98102.06;;;-6.29
80537;BMP280;69867;47.074;15.404;2023-12-04T06:29:15;98100.50;;;-6.27
80537;BMP280;69867;47.074;15.404;2023-12-04T06:31:41;98099.69;;;-6.26
80537;BMP280;69867;47.074;15.404;2023-12-04T06:34:07;98089.44;;;-6.29
80537;BMP280;69867;47.074;15.404;2023-12-04T06:36:34;98095.28;;;-6.30
80537;BMP280;69867;47.074;15.404;2023-12-04T06:39:01;98089.44;;;-6.29
80537;BMP280;69867;47.074;15.404;2023-12-04T06:41:27;98092.84;;;-6.28
80537;BMP280;69867;47.074;15.404;2023-12-04T06:43:52;98088.72;;;-6.26
80537;BMP280;69867;47.074;15.404;2023-12-04T06:46:18;98083.88;;;-6.22
80537;BMP280;69867;47.074;15.404;2023-12-04T06:48:44;98081.50;;;-6.19
80537;BMP280;69867;47.074;15.404;2023-12-04T06:51:10;98090.03;;;-6.17
80537;BMP280;69867;47.074;15.404;2023-12-04T06:53:35;98091.06;;;-6.13
80537;BMP280;69867;47.074;15.404;2023-12-04T06:56:00;98091.13;;;-6.11
80537;BMP280;69867;47.074;15.404;2023-12-04T06:58:25;98082.13;;;-6.06
80537;BMP280;69867;47.074;15.404;2023-12-04T07:00:51;98086.44;;;-6.04
80537;BMP280;69867;47.074;15.404;2023-12-04T07:03:16;98081.47;;;-6.02
80537;BMP280;69867;47.074;15.404;2023-12-04T07:05:41;98083.28;;;-6.00
80537;BMP280;69867;47.074;15.404;2023-12-04T07:08:07;98075.75;;;-5.98
80537;BMP280;69867;47.074;15.404;2023-12-04T07:10:32;98074.25;;;-5.95
80537;BMP280;69867;47.074;15.404;2023-12-04T07:12:57;98085.31;;;-5.93
80537;BMP280;69867;47.074;15.404;2023-12-04T07:15:23;98093.09;;;-5.88
80537;BMP280;69867;47.074;15.404;2023-12-04T07:17:48;98090.72;;;-5.85
80537;BMP280;69867;47.074;15.404;2023-12-04T07:20:13;98093.53;;;-5.79
80537;BMP280;69867;47.074;15.404;2023-12-04T07:22:38;98087.97;;;-5.72
80537;BMP280;69867;47.074;15.404;2023-12-04T07:25:04;98089.22;;;-5.64
80537;BMP280;69867;47.074;15.404;2023-12-04T07:27:29;98085.22;;;-5.59
80537;BMP280;69867;47.074;15.404;2023-12-04T07:29:54;98084.44;;;-5.58
80537;BMP280;69867;47.074;15.404;2023-12-04T07:32:20;98080.38;;;-5.54
80537;BMP280;69867;47.074;15.404;2023-12-04T07:34:45;98085.66;;;-5.50
80537;BMP280;69867;47.074;15.404;2023-12-04T07:37:10;98089.28;;;-5.44
80537;BMP280;69867;47.074;15.404;2023-12-04T07:39:35;98083.56;;;-5.40
80537;BMP280;69867;47.074;15.404;2023-12-04T07:42:01;98080.66;;;-5.30
80537;BMP280;69867;47.074;15.404;2023-12-04T07:44:26;98076.88;;;-5.21
80537;BMP280;69867;47.074;15.404;2023-12-04T07:46:51;98071.25;;;-5.15
80537;BMP280;69867;47.074;15.404;2023-12-04T07:49:17;98069.78;;;-5.10
80537;BMP280;69867;47.074;15.404;2023-12-04T07:51:42;98069.19;;;-5.04
80537;BMP280;69867;47.074;15.404;2023-12-04T07:54:07;98068.69;;;-4.97
80537;BMP280;69867;47.074;15.404;2023-12-04T07:56:32;98077.56;;;-4.88
80537;BMP280;69867;47.074;15.404;2023-12-04T07:58:57;98077.91;;;-4.80
80537;BMP280;69867;47.074;15.404;2023-12-04T08:01:23;98076.38;;;-4.76
80537;BMP280;69867;47.074;15.404;2023-12-04T08:03:48;98080.72;;;-4.74
80537;BMP280;69867;47.074;15.404;2023-12-04T08:06:13;98078.38;;;-4.69
80537;BMP280;69867;47.074;15.404;2023-12-04T08:08:39;98073.69;;;-4.60
80537;BMP280;69867;47.074;15.404;2023-12-04T08:11:04;98069.28;;;-4.45
80537;BMP280;69867;47.074;15.404;2023-12-04T08:13:29;98075.47;;;-4.38
80537;BMP280;69867;47.074;15.404;2023-12-04T08:15:54;98063.00;;;-4.34
80537;BMP280;69867;47.074;15.404;2023-12-04T08:18:20;98067.53;;;-4.27
80537;BMP280;69867;47.074;15.404;2023-12-04T08:20:45;98061.72;;;-4.24
80537;BMP280;69867;47.074;15.404;2023-12-04T08:23:10;98055.91;;;-4.22
80537;BMP280;69867;47.074;15.404;2023-12-04T08:25:35;98067.66;;;-4.24
80537;BMP280;69867;47.074;15.404;2023-12-04T08:28:01;98055.22;;;-4.18
80537;BMP280;69867;47.074;15.404;2023-12-04T08:30:26;98053.06;;;-4.08
80537;BMP280;69867;47.074;15.404;2023-12-04T08:32:51;98045.00;;;-3.98
80537;BMP280;69867;47.074;15.404;2023-12-04T08:35:17;98032.72;;;-3.89
80537;BMP280;69867;47.074;15.404;2023-12-04T08:37:42;98032.72;;;-3.89
80537;BMP280;69867;47.074;15.404;2023-12-04T08:40:08;98030.25;;;-3.88
80537;BMP280;69867;47.074;15.404;2023-12-04T08:42:33;98033.91;;;-3.81
80537;BMP280;69867;47.074;15.404;2023-12-04T08:44:59;98033.09;;;-3.80
80537;BMP280;69867;47.074;15.404;2023-12-04T08:47:24;98031.78;;;-3.70
80537;BMP280;69867;47.074;15.404;2023-12-04T08:49:49;98028.72;;;-3.62
80537;BMP280;69867;47.074;15.404;2023-12-04T08:52:14;98028.97;;;-3.56
80537;BMP280;69867;47.074;15.404;2023-12-04T08:54:40;98040.22;;;-3.49
80537;BMP280;69867;47.074;15.404;2023-12-04T08:57:05;98033.59;;;-3.45
80537;BMP280;69867;47.074;15.404;2023-12-04T08:59:31;98038.34;;;-3.32
80537;BMP280;69867;47.074;15.404;2023-12-04T09:01:56;98030.19;;;-3.24
80537;BMP280;69867;47.074;15.404;2023-12-04T09:04:22;98027.94;;;-3.16
80537;BMP280;69867;47.074;15.404;2023-12-04T09:06:47;98033.19;;;-3.11
80537;BMP280;69867;47.074;15.404;2023-12-04T09:09:12;98030.75;;;-3.08
80537;BMP280;69867;47.074;15.404;2023-12-04T09:11:42;98024.91;;;-3.06
80537;BMP280;69867;47.074;15.404;2023-12-04T09:14:08;98025.84;;;-3.04
80537;BMP280;69867;47.074;15.404;2023-12-04T09:16:33;98015.19;;;-2.94
80537;BMP280;69867;47.074;15.404;2023-12-04T09:18:59;98020.63;;;-2.84
80537;BMP280;69867;47.074;15.404;2023-12-04T09:21:24;98006.38;;;-2.79
80537;BMP280;69867;47.074;15.404;2023-12-04T09:23:49;98005.09;;;-2.68
80537;BMP280;69867;47.074;15.404;2023-12-04T09:26:16;98001.16;;;-2.60
80537;BMP280;69867;47.074;15.404;2023-12-04T09:28:41;97993.53;;;-2.60
80537;BMP280;69867;47.074;15.404;2023-12-04T09:31:08;97993.41;;;-2.63
80537;BMP280;69867;47.074;15.404;2023-12-04T09:33:34;97979.34;;;-2.53
80537;BMP280;69867;47.074;15.404;2023-12-04T09:35:59;97973.50;;;-2.51
80537;BMP280;69867;47.074;15.404;2023-12-04T09:38:24;97973.69;;;-2.45
80537;BMP280;69867;47.074;15.404;2023-12-04T09:40:52;97978.19;;;-2.38
80537;BMP280;69867;47.074;15.404;2023-12-04T09:43:18;97969.00;;;-2.33
80537;BMP280;69867;47.074;15.404;2023-12-04T09:45:44;97964.59;;;-2.38
80537;BMP280;69867;47.074;15.404;2023-12-04T09:48:09;97960.16;;;-2.44
80537;BMP280;69867;47.074;15.404;2023-12-04T09:50:36;97951.75;;;-2.41
80537;BMP280;69867;47.074;15.404;2023-12-04T09:53:02;97945.28;;;-2.32
80537;BMP280;69867;47.074;15.404;2023-12-04T09:55:28;97937.91;;;-2.24
80537;BMP280;69867;47.074;15.404;2023-12-04T09:57:54;97939.72;;;-2.20
80537;BMP280;69867;47.074;15.404;2023-12-04T10:00:21;97937.44;;;-2.12
80537;BMP280;69867;47.074;15.404;2023-12-04T10:02:47;97939.41;;;-2.04
80537;BMP280;69867;47.074;15.404;2023-12-04T10:05:12;97924.53;;;-1.90
80537;BMP280;69867;47.074;15.404;2023-12-04T10:07:37;97919.81;;;-1.78
80537;BMP280;69867;47.074;15.404;2023-12-04T10:10:04;97917.19;;;-1.81
80537;BMP280;69867;47.074;15.404;2023-12-04T10:12:30;97912.50;;;-1.67
80537;BMP280;69867;47.074;15.404;2023-12-04T10:15:04;97908.44;;;-1.61
80537;BMP280;69867;47.074;15.404;2023-12-04T10:17:33;97895.88;;;-1.54
80537;BMP280;69867;47.074;15.404;2023-12-04T10:20:13;97888.69;;;-1.39
80537;BMP280;69867;47.074;15.404;2023-12-04T10:22:40;97886.50;;;-1.27
80537;BMP280;69867;47.074;15.404;2023-12-04T10:25:15;97875.91;;;-1.11
80537;BMP280;69867;47.074;15.404;2023-12-04T10:27:41;97878.59;;;-1.05
80537;BMP280;69867;47.074;15.404;2023-12-04T10:30:07;97868.69;;;-0.94
80537;BMP280;69867;47.074;15.404;2023-12-04T10:32:36;97874.34;;;-1.06
80537;BMP280;69867;47.074;15.404;2023-12-04T10:35:02;97867.38;;;-1.11
80537;BMP280;69867;47.074;15.404;2023-12-04T10:37:29;97859.44;;;-0.90
80537;BMP280;69867;47.074;15.404;2023-12-04T10:39:55;97858.06;;;-0.78
80537;BMP280;69867;47.074;15.404;2023-12-04T10:42:27;97849.91;;;-0.63
80537;BMP280;69867;47.074;15.404;2023-12-04T10:44:56;97847.47;;;-0.58
80537;BMP280;69867;47.074;15.404;2023-12-04T10:47:22;97842.59;;;-0.49
80537;BMP280;69867;47.074;15.404;2023-12-04T10:49:51;97836.13;;;-0.35
80537;BMP280;69867;47.074;15.404;2023-12-04T10:52:20;97834.31;;;-0.39
80537;BMP280;69867;47.074;15.404;2023-12-04T10:54:46;97836.84;;;-0.41
80537;BMP280;69867;47.074;15.404;2023-12-04T10:57:37;97835.34;;;-0.33
80537;BMP280;69867;47.074;15.404;2023-12-04T11:00:03;97824.44;;;-0.25
80537;BMP280;69867;47.074;15.404;2023-12-04T11:02:33;97813.41;;;-0.23
80537;BMP280;69867;47.074;15.404;2023-12-04T11:05:11;97808.38;;;-0.20
80537;BMP280;69867;47.074;15.404;2023-12-04T11:07:37;97813.53;;;-0.18
80537;BMP280;69867;47.074;15.404;2023-12-04T11:10:04;97805.09;;;-0.14
80537;BMP280;69867;47.074;15.404;2023-12-04T11:12:31;97802.78;;;-0.04
80537;BMP280;69867;47.074;15.404;2023-12-04T11:15:02;97797.59;;;-0.07
80537;BMP280;69867;47.074;15.404;2023-12-04T11:17:31;97801.06;;;-0.05
80537;BMP280;69867;47.074;15.404;2023-12-04T11:20:14;97800.25;;;-0.02
80537;BMP280;69867;47.074;15.404;2023-12-04T11:22:43;97788.47;;;0.03
80537;BMP280;69867;47.074;15.404;2023-12-04T11:25:10;97792.06;;;0.11
80537;BMP280;69867;47.074;15.404;2023-12-04T11:27:36;97787.13;;;0.20
80537;BMP280;69867;47.074;15.404;2023-12-04T11:30:02;97778.63;;;0.21
80537;BMP280;69867;47.074;15.404;2023-12-04T11:32:28;97772.81;;;0.28
80537;BMP280;69867;47.074;15.404;2023-12-04T11:34:59;97761.81;;;0.32
80537;BMP280;69867;47.074;15.404;2023-12-04T11:37:25;97770.38;;;0.35
80537;BMP280;69867;47.074;15.404;2023-12-04T11:39:51;97756.84;;;0.40
80537;BMP280;69867;47.074;15.404;2023-12-04T11:42:22;97751.72;;;0.39
80537;BMP280;69867;47.074;15.404;2023-12-04T11:44:49;97757.69;;;0.39
80537;BMP280;69867;47.074;15.404;2023-12-04T11:47:15;97754.03;;;0.26
80537;BMP280;69867;47.074;15.404;2023-12-04T11:49:41;97746.59;;;0.39
80537;BMP280;69867;47.074;15.404;2023-12-04T11:52:06;97753.19;;;0.27
80537;BMP280;69867;47.074;15.404;2023-12-04T11:54:58;97749.69;;;0.22
80537;BMP280;69867;47.074;15.404;2023-12-04T11:57:23;97740.41;;;0.26
80537;BMP280;69867;47.074;15.404;2023-12-04T11:59:49;97749.59;;;0.18
80537;BMP280;69867;47.074;15.404;2023-12-04T12:02:15;97741.19;;;0.23
80537;BMP280;69867;47.074;15.404;2023-12-04T12:04:41;97746.25;;;0.20
80537;BMP280;69867;47.074;15.404;2023-12-04T12:07:06;97743.66;;;0.19
80537;BMP280;69867;47.074;15.404;2023-12-04T12:09:33;97736.94;;;0.24
80537;BMP280;69867;47.074;15.404;2023-12-04T12:12:02;97731.72;;;0.18
80537;BMP280;69867;47.074;15.404;2023-12-04T12:14:31;97730.19;;;0.27
80537;BMP280;69867;47.074;15.404;2023-12-04T12:17:00;97731.28;;;0.40
80537;BMP280;69867;47.074;15.404;2023-12-04T12:19:25;97730.25;;;0.30
80537;BMP280;69867;47.074;15.404;2023-12-04T12:21:51;97728.59;;;0.32
80537;BMP280;69867;47.074;15.404;2023-12-04T12:24:16;97715.94;;;0.39
80537;BMP280;69867;47.074;15.404;2023-12-04T12:26:42;97711.72;;;0.41
80537;BMP280;69867;47.074;15.404;2023-12-04T12:29:08;97705.53;;;0.29
80537;BMP280;69867;47.074;15.404;2023-12-04T12:31:34;97700.44;;;0.29
80537;BMP280;69867;47.074;15.404;2023-12-04T12:33:59;97699.47;;;0.24
80537;BMP280;69867;47.074;15.404;2023-12-04T12:36:25;97682.50;;;0.28
80537;BMP280;69867;47.074;15.404;2023-12-04T12:38:50;97686.59;;;0.18
80537;BMP280;69867;47.074;15.404;2023-12-04T12:41:16;97687.44;;;0.19
80537;BMP280;69867;47.074;15.404;2023-12-04T12:43:42;97684.09;;;0.21
80537;BMP280;69867;47.074;15.404;2023-12-04T12:46:08;97676.44;;;0.23
80537;BMP280;69867;47.074;15.404;2023-12-04T12:48:33;97676.47;;;0.24
80537;BMP280;69867;47.074;15.404;2023-12-04T12:50:59;97667.09;;;0.23
80537;BMP280;69867;47.074;15.404;2023-12-04T12:53:24;97667.69;;;0.10
80537;BMP280;69867;47.074;15.404;2023-12-04T12:55:50;97668.69;;;0.18
80537;BMP280;69867;47.074;15.404;2023-12-04T12:58:15;97669.56;;;0.19
80537;BMP280;69867;47.074;15.404;2023-12-04T13:00:43;97667.72;;;0.12
80537;BMP280;69867;47.074;15.404;2023-12-04T13:03:15;97652.41;;;0.13
80537;BMP280;69867;47.074;15.404;2023-12-04T13:05:41;97649.91;;;0.16
80537;BMP280;69867;47.074;15.404;2023-12-04T13:08:06;97639.66;;;0.15
80537;BMP280;69867;47.074;15.404;2023-12-04T13:10:31;97635.44;;;0.17
80537;BMP280;69867;47.074;15.404;2023-12-04T13:12:57;97636.22;;;0.13
80537;BMP280;69867;47.074;15.404;2023-12-04T13:15:22;97633.69;;;0.14
80537;BMP280;69867;47.074;15.404;2023-12-04T13:17:48;97626.81;;;0.10
80537;BMP280;69867;47.074;15.404;2023-12-04T13:20:13;97620.78;;;0.07
80537;BMP280;69867;47.074;15.404;2023-12-04T13:22:39;97613.06;;;0.04
80537;BMP280;69867;47.074;15.404;2023-12-04T13:25:05;97618.34;;;0.13
80537;BMP280;69867;47.074;15.404;2023-12-04T13:27:31;97616.69;;;0.16
80537;BMP280;69867;47.074;15.404;2023-12-04T13:29:56;97619.94;;;0.06
80537;BMP280;69867;47.074;15.404;2023-12-04T13:32:21;97614.56;;;-0.06
80537;BMP280;69867;47.074;15.404;2023-12-04T13:34:47;97608.88;;;0.07
80537;BMP280;69867;47.074;15.404;2023-12-04T13:37:12;97615.47;;;-0.03
80537;BMP280;69867;47.074;15.404;2023-12-04T13:39:37;97619.59;;;-0.09
80537;BMP280;69867;47.074;15.404;2023-12-04T13:42:03;97623.03;;;-0.09
80537;BMP280;69867;47.074;15.404;2023-12-04T13:44:28;97621.09;;;-0.20
80537;BMP280;69867;47.074;15.404;2023-12-04T13:46:54;97622.44;;;-0.39
80537;BMP280;69867;47.074;15.404;2023-12-04T13:49:19;97621.44;;;-0.46
80537;BMP280;69867;47.074;15.404;2023-12-04T13:51:45;97624.66;;;-0.54